MET5691 - Baltimore to Boston

Embraer ERJ-170LR
N920AU
1 hr 15 mins
321 nm
Scheduled - Daily

Bid/PiRep Status

Bid was submitted on Jan 02 2017.

PiRep # 74602: Approved by Sean Doyle on January 5th, 2017 4:10 UTC

Departure

Departing from
Baltimore (BWI)
Departure gate
Scheduled Departure
GMT 1410
Local 0910
METAR KBWI 222354Z 34007KT 10SM FEW250 04/M17 A3038 RMK AO2 SLP286 T00441172 10089 20044 53034
TAF KBWI 222331Z 2300/2406 34008KT P6SM SKC FM230400 VRB04KT P6SM FEW200 FM231900 17004KT P6SM SCT200

Route Map

Planning Resources

PALEO3,HTO,WOONS1
OOD J42 RBV J222 JFK
SWANN3 DQO DAVYS J42 LAURN J222 JFK J225 NEWES INNDY2 CCC TELLE KENEE WOBUR EMMEL FIX 17
DCT SWANN DCT OOD J42 RBV J222 JFK KRANN3
ODD DAVYS BRAND RBV LAURN SANTT PACER HFD PUT
Route:
OFP Layout:
Units:
Detailed Navlog:
ETOPS Planning:
Plan Stepclimbs:
Runway Analysis:
Include NOTAMS:
FIR NOTAMS:
Flight Maps:

Return Flights

MET764
Airbus A321-232
2200 GMT
MET5690
Embraer ERJ-170LR
0222 GMT
MET5692
Embraer ERJ-170LR
1555 GMT
MET5764
Embraer ERJ-170LR
1235 GMT

Popularity

Hub Current Bids PiReps this month Total PiReps
KMCI 0 0 6
KLAX 0 0 2
KBOS 0 0 1